Time;durP1;ratioP1;P1;durP2;ratioP2;P2;SDS_P1;SDS_P2;PMS_P1;PMS_P2;Temp;Humidity;BMP_temperature;BMP_pressure;BME280_temperature;BME280_humidity;BME280_pressure;Samples;Min_cycle;Max_cycle;Signal;HPM_P1;HPM_P2
2022/05/20 00:00:47;;;;;;;6.33;5.70;;;22.50;70.80;;;;;;5071718;28;20279;-43
2022/05/20 00:03:13;;;;;;;5.97;5.37;;;22.60;70.30;;;;;;5072444;28;20466;-44
2022/05/20 00:05:39;;;;;;;5.47;4.93;;;22.80;69.50;;;;;;5071701;28;20477;-44
2022/05/20 00:08:05;;;;;;;7.17;5.37;;;22.80;68.60;;;;;;5072046;28;20230;-43
2022/05/20 00:10:31;;;;;;;5.97;5.40;;;22.90;68.10;;;;;;5070866;28;20262;-43
2022/05/20 00:12:59;;;;;;;6.37;5.77;;;23.00;67.60;;;;;;5071244;28;20426;-43
2022/05/20 00:15:26;;;;;;;5.53;4.77;;;23.00;67.50;;;;;;5071627;28;20914;-43
2022/05/20 00:17:53;;;;;;;5.83;5.17;;;23.00;68.10;;;;;;5071925;28;20451;-42
2022/05/20 00:20:21;;;;;;;5.50;5.00;;;23.10;67.80;;;;;;5071158;28;20426;-43
2022/05/20 00:22:47;;;;;;;6.60;4.73;;;23.30;67.10;;;;;;5072063;28;20427;-43
2022/05/20 00:27:59;;;;;;;6.77;5.93;;;23.50;66.30;;;;;;5072075;28;20191;-43
2022/05/20 00:30:26;;;;;;;6.00;5.30;;;23.50;66.50;;;;;;5070775;28;20427;-43
2022/05/20 00:32:52;;;;;;;8.53;6.47;;;23.50;66.40;;;;;;5071520;28;20242;-43
2022/05/20 00:35:18;;;;;;;5.57;5.03;;;23.50;66.20;;;;;;5071083;28;20547;-43
2022/05/20 00:37:44;;;;;;;6.70;5.83;;;23.40;66.30;;;;;;5069956;28;20513;-43
2022/05/20 00:40:13;;;;;;;8.70;5.50;;;23.40;66.70;;;;;;5070616;28;20541;-43
2022/05/20 00:42:40;;;;;;;6.50;5.17;;;23.30;66.80;;;;;;5071634;28;20192;-44
2022/05/20 00:45:07;;;;;;;6.03;5.43;;;23.30;67.10;;;;;;5071006;28;21235;-42
2022/05/20 00:47:33;;;;;;;7.27;5.30;;;23.40;66.70;;;;;;5071060;28;20430;-43
2022/05/20 00:50:02;;;;;;;5.43;4.90;;;23.30;66.20;;;;;;5070470;28;20434;-43
2022/05/20 00:52:31;;;;;;;7.40;4.93;;;23.20;66.50;;;;;;5071174;28;20509;-43
2022/05/20 00:55:04;;;;;;;6.33;5.20;;;23.20;66.70;;;;;;5070687;28;20535;-42
2022/05/20 00:57:43;;;;;;;9.47;5.53;;;23.20;66.80;;;;;;5071214;28;20442;-44
2022/05/20 01:00:18;;;;;;;6.70;6.10;;;23.10;67.70;;;;;;5070408;28;20426;-42
2022/05/20 01:02:46;;;;;;;9.30;5.50;;;22.90;68.60;;;;;;5071260;28;20469;-44
2022/05/20 01:05:21;;;;;;;6.13;5.20;;;22.80;69.30;;;;;;5068758;28;20491;-43
2022/05/20 01:07:48;;;;;;;6.50;5.90;;;22.80;69.50;;;;;;5071199;28;20450;-43
2022/05/20 01:10:13;;;;;;;21.53;12.47;;;22.60;70.20;;;;;;5070185;28;20422;-44
2022/05/20 01:12:39;;;;;;;12.80;9.47;;;22.20;71.20;;;;;;5070842;28;20429;-44
2022/05/20 01:15:06;;;;;;;6.17;5.27;;;22.00;72.90;;;;;;5070213;28;20278;-43
2022/05/20 01:17:32;;;;;;;6.40;5.80;;;21.90;73.50;;;;;;5070875;28;20191;-43
2022/05/20 01:19:59;;;;;;;6.83;6.20;;;21.80;74.30;;;;;;5069879;28;20994;-42
2022/05/20 01:22:40;;;;;;;6.67;5.97;;;21.60;74.90;;;;;;5070908;28;20418;-44
2022/05/20 01:25:10;;;;;;;10.27;7.27;;;21.50;76.60;;;;;;5068984;28;21240;-42
2022/05/20 01:27:46;;;;;;;8.60;6.40;;;21.50;76.40;;;;;;5070841;28;20425;-42
2022/05/20 01:30:16;;;;;;;6.87;6.00;;;21.50;76.40;;;;;;5069825;28;20429;-42
2022/05/20 01:32:41;;;;;;;6.20;5.60;;;21.40;76.80;;;;;;5069134;28;20426;-43
2022/05/20 01:35:13;;;;;;;6.37;5.77;;;21.60;76.10;;;;;;5069926;28;20880;-42
2022/05/20 01:37:39;;;;;;;6.60;5.80;;;21.60;75.70;;;;;;5070391;28;20195;-42
2022/05/20 01:40:07;;;;;;;5.93;5.43;;;21.70;75.50;;;;;;5069432;28;20796;-43
2022/05/20 01:42:49;;;;;;;5.93;5.37;;;21.80;74.80;;;;;;5069733;28;20241;-42
2022/05/20 01:45:32;;;;;;;7.10;6.50;;;21.80;74.70;;;;;;5069979;28;20422;-42
2022/05/20 01:48:25;;;;;;;7.30;5.90;;;21.70;75.50;;;;;;5070445;28;20425;-43
2022/05/20 01:50:55;;;;;;;6.97;6.37;;;21.50;75.70;;;;;;5069694;28;20425;-42
2022/05/20 01:53:32;;;;;;;8.25;7.10;;;21.50;76.10;;;;;;5070087;28;20426;-42
2022/05/20 01:56:11;;;;;;;7.30;6.63;;;21.70;75.10;;;;;;5069600;28;20434;-42
2022/05/20 01:58:58;;;;;;;6.97;6.27;;;21.60;75.50;;;;;;5068272;28;20434;-43
2022/05/20 02:01:40;;;;;;;8.03;6.53;;;21.60;75.60;;;;;;5069601;28;20487;-43
2022/05/20 02:04:20;;;;;;;8.33;6.47;;;21.30;77.40;;;;;;5070016;28;20501;-43
2022/05/20 02:06:55;;;;;;;8.73;6.67;;;21.40;76.80;;;;;;5069623;28;20458;-43
2022/05/20 02:09:31;;;;;;;10.23;6.40;;;21.30;77.20;;;;;;5069504;28;20474;-43
2022/05/20 02:11:57;;;;;;;7.67;6.97;;;21.30;76.80;;;;;;5069393;28;20849;-43
2022/05/20 02:14:35;;;;;;;5.93;5.43;;;21.20;77.10;;;;;;5069962;28;20588;-43
2022/05/20 02:17:10;;;;;;;7.17;6.57;;;21.30;77.20;;;;;;5069221;28;20513;-43
2022/05/20 02:19:47;;;;;;;6.23;5.73;;;21.30;76.70;;;;;;5069852;28;20509;-44
2022/05/20 02:22:19;;;;;;;7.30;6.70;;;21.40;76.60;;;;;;5069500;28;20426;-47
2022/05/20 02:24:47;;;;;;;7.70;6.53;;;21.30;76.70;;;;;;5070180;28;20423;-43
2022/05/20 02:27:19;;;;;;;7.17;6.13;;;21.20;77.30;;;;;;5068066;28;20433;-46
2022/05/20 02:30:03;;;;;;;7.43;6.57;;;21.20;77.40;;;;;;5069501;28;20449;-46
2022/05/20 02:32:40;;;;;;;8.40;6.73;;;21.10;77.40;;;;;;5070075;28;20438;-46
2022/05/20 02:35:06;;;;;;;8.30;5.70;;;21.10;78.00;;;;;;5069047;28;20534;-46
2022/05/20 02:37:34;;;;;;;11.30;6.37;;;21.00;78.20;;;;;;5069911;28;20437;-43
2022/05/20 02:40:01;;;;;;;8.50;7.57;;;21.00;78.60;;;;;;5068757;28;20433;-45
2022/05/20 02:42:28;;;;;;;6.90;6.20;;;21.00;78.60;;;;;;5069850;28;20941;-44
2022/05/20 02:44:55;;;;;;;7.20;6.60;;;20.90;78.80;;;;;;5069387;28;20426;-44
2022/05/20 02:47:21;;;;;;;8.40;6.33;;;20.80;78.90;;;;;;5069422;28;20464;-46
2022/05/20 02:49:46;;;;;;;7.27;6.40;;;20.70;79.60;;;;;;5069365;28;20460;-45
2022/05/20 02:52:12;;;;;;;7.90;6.27;;;20.70;79.80;;;;;;5068391;28;20188;-45
2022/05/20 02:54:38;;;;;;;6.53;5.93;;;20.80;79.00;;;;;;5070034;28;20223;-45
2022/05/20 02:57:04;;;;;;;11.07;6.20;;;21.00;78.50;;;;;;5072979;28;20548;-47
2022/05/20 03:04:58;;;;;;;7.07;6.47;;;20.80;78.60;;;;;;5073077;28;20987;-45
2022/05/20 03:07:24;;;;;;;8.60;7.30;;;20.90;78.70;;;;;;5072133;28;20438;-43
2022/05/20 03:09:51;;;;;;;10.30;7.87;;;20.90;78.10;;;;;;5072841;28;20200;-46
2022/05/20 03:12:17;;;;;;;7.70;7.00;;;20.80;78.70;;;;;;5072342;28;20195;-46
2022/05/20 03:14:43;;;;;;;7.50;6.80;;;20.80;78.80;;;;;;5073289;28;20473;-43
2022/05/20 03:17:09;;;;;;;7.00;6.40;;;20.60;79.90;;;;;;5072578;28;20464;-46
2022/05/20 03:19:34;;;;;;;7.77;7.07;;;20.50;80.00;;;;;;5070918;28;20192;-43
2022/05/20 03:22:02;;;;;;;7.40;6.70;;;20.40;81.10;;;;;;5072609;28;20187;-44
2022/05/20 03:24:28;;;;;;;7.43;6.87;;;20.40;81.40;;;;;;5073065;28;20199;-46
2022/05/20 03:26:54;;;;;;;7.70;6.90;;;20.30;81.60;;;;;;5072449;28;20430;-42
2022/05/20 03:29:20;;;;;;;7.30;6.60;;;20.40;81.60;;;;;;5072683;28;20418;-42
2022/05/20 03:31:47;;;;;;;7.40;6.70;;;20.50;81.10;;;;;;5070978;28;20264;-43
2022/05/20 03:34:13;;;;;;;8.07;7.33;;;20.50;80.50;;;;;;5073036;28;20216;-42
2022/05/20 03:36:41;;;;;;;7.53;6.83;;;20.50;80.40;;;;;;5072141;28;20939;-42
2022/05/20 03:39:08;;;;;;;9.63;6.87;;;20.60;80.60;;;;;;5072462;28;20380;-43
2022/05/20 03:41:35;;;;;;;8.70;7.23;;;20.70;80.10;;;;;;5072261;28;20513;-42
2022/05/20 03:44:00;;;;;;;8.63;6.87;;;20.40;81.20;;;;;;5072652;28;20430;-43
2022/05/20 03:46:26;;;;;;;7.43;6.83;;;20.50;81.20;;;;;;5070325;28;20437;-42
2022/05/20 03:48:52;;;;;;;11.30;7.77;;;20.60;80.80;;;;;;5072307;28;20206;-43
2022/05/20 03:51:18;;;;;;;8.07;7.27;;;20.80;79.60;;;;;;5071733;28;20207;-43
2022/05/20 03:53:44;;;;;;;7.37;6.63;;;20.80;79.30;;;;;;5072591;28;20454;-42
2022/05/20 03:56:10;;;;;;;10.40;7.33;;;20.60;80.20;;;;;;5071744;28;20433;-42
2022/05/20 03:58:36;;;;;;;7.73;7.03;;;20.60;80.70;;;;;;5072475;28;20195;-42
2022/05/20 04:03:47;;;;;;;10.03;7.20;;;20.80;79.90;;;;;;5072166;28;20480;-45
2022/05/20 04:06:14;;;;;;;10.27;7.20;;;20.80;79.50;;;;;;5070894;28;20466;-44
2022/05/20 04:08:40;;;;;;;6.67;5.90;;;20.80;79.40;;;;;;5072465;28;20429;-45
2022/05/20 04:11:06;;;;;;;8.20;7.47;;;20.80;79.10;;;;;;5071098;28;20422;-43
2022/05/20 04:13:32;;;;;;;7.93;7.23;;;20.80;78.80;;;;;;5070425;28;20222;-46
2022/05/20 04:15:58;;;;;;;12.80;7.37;;;20.80;79.00;;;;;;5071556;28;20454;-45
2022/05/20 04:18:24;;;;;;;9.23;7.50;;;20.90;78.50;;;;;;5072006;28;20450;-43
2022/05/20 04:20:50;;;;;;;10.43;7.10;;;20.90;78.40;;;;;;5071079;28;20278;-46
2022/05/20 04:23:17;;;;;;;7.73;7.00;;;21.00;78.30;;;;;;5072120;28;20622;-46
2022/05/20 04:25:44;;;;;;;7.70;7.00;;;21.00;77.70;;;;;;5071586;28;20527;-43
2022/05/20 04:28:11;;;;;;;8.00;7.30;;;20.90;78.50;;;;;;5071921;28;20802;-44
2022/05/20 04:30:36;;;;;;;7.10;6.50;;;20.80;79.30;;;;;;5071049;28;20475;-43
2022/05/20 04:33:02;;;;;;;8.43;7.57;;;20.80;78.60;;;;;;5071718;28;20418;-47
2022/05/20 04:35:28;;;;;;;10.17;7.53;;;20.80;79.30;;;;;;5071159;28;20234;-44
2022/05/20 04:37:53;;;;;;;8.37;7.67;;;20.90;78.90;;;;;;5071661;28;20196;-47
2022/05/20 04:40:19;;;;;;;7.40;6.73;;;21.00;78.60;;;;;;5069006;28;20195;-44
2022/05/20 04:48:13;;;;;;;7.63;6.83;;;21.00;77.70;;;;;;5071427;28;20436;-44
2022/05/20 04:50:40;;;;;;;9.13;7.53;;;20.80;78.40;;;;;;5070467;28;20831;-44
2022/05/20 04:53:06;;;;;;;7.13;6.53;;;20.90;79.20;;;;;;5071284;28;20198;-44
2022/05/20 04:55:32;;;;;;;8.40;7.47;;;21.00;78.60;;;;;;5070574;28;20486;-47
2022/05/20 04:57:59;;;;;;;8.57;7.77;;;21.00;78.30;;;;;;5071243;28;20442;-46
2022/05/20 05:00:30;;;;;;;7.43;6.73;;;21.10;78.00;;;;;;5070019;28;20426;-44
2022/05/20 05:02:56;;;;;;;8.23;7.43;;;21.10;77.80;;;;;;5071216;28;20569;-44
2022/05/20 05:05:25;;;;;;;7.07;6.50;;;21.20;77.70;;;;;;5070630;28;21036;-43
2022/05/20 05:07:53;;;;;;;7.53;6.90;;;21.30;77.60;;;;;;5069508;28;20245;-44
2022/05/20 05:10:22;;;;;;;12.60;7.20;;;21.30;77.60;;;;;;5069915;28;21236;-44
2022/05/20 05:12:49;;;;;;;7.50;6.80;;;21.30;77.30;;;;;;5071118;28;20437;-43
2022/05/20 05:15:15;;;;;;;7.47;6.83;;;21.30;77.50;;;;;;5070434;28;20477;-43
2022/05/20 05:20:27;;;;;;;8.93;8.13;;;21.20;77.70;;;;;;5070205;28;20476;-43
2022/05/20 05:22:54;;;;;;;6.53;5.93;;;21.10;79.20;;;;;;5070716;28;20430;-43
2022/05/20 05:25:22;;;;;;;7.87;7.17;;;21.30;78.70;;;;;;5070300;28;20433;-42
2022/05/20 05:27:48;;;;;;;8.43;7.30;;;21.30;77.90;;;;;;5070926;28;20434;-45
2022/05/20 05:30:15;;;;;;;8.13;7.33;;;21.40;77.90;;;;;;5069860;28;20509;-42
2022/05/20 05:32:41;;;;;;;8.10;7.30;;;21.50;77.80;;;;;;5070385;28;21001;-43
2022/05/20 05:35:10;;;;;;;9.03;8.13;;;21.70;76.70;;;;;;5068148;28;21015;-43
2022/05/20 05:37:38;;;;;;;9.13;6.73;;;21.70;76.40;;;;;;5070805;28;20555;-43
2022/05/20 05:40:05;;;;;;;7.43;6.63;;;21.70;76.50;;;;;;5069812;28;20417;-47
2022/05/20 05:42:31;;;;;;;7.60;7.00;;;21.90;76.20;;;;;;5070466;28;20434;-44
2022/05/20 05:44:57;;;;;;;7.37;6.70;;;22.10;76.00;;;;;;5069840;28;20429;-44
2022/05/20 05:47:23;;;;;;;7.93;7.07;;;22.20;75.60;;;;;;5070433;28;20596;-44
2022/05/20 05:49:48;;;;;;;7.17;6.47;;;22.30;75.30;;;;;;5070053;28;20502;-43
2022/05/20 05:52:14;;;;;;;7.73;6.93;;;22.60;74.50;;;;;;5069920;28;20219;-43
2022/05/20 05:54:39;;;;;;;7.40;6.80;;;22.80;73.20;;;;;;5070035;28;20616;-44
2022/05/20 05:57:06;;;;;;;8.53;7.63;;;23.00;73.00;;;;;;5069757;28;20300;-43
2022/05/20 05:59:32;;;;;;;8.93;7.40;;;23.00;72.50;;;;;;5069934;28;20279;-44
2022/05/20 06:02:03;;;;;;;7.37;6.77;;;23.00;72.10;;;;;;5067703;28;20466;-45
2022/05/20 06:04:29;;;;;;;6.90;6.30;;;22.80;73.40;;;;;;5058375;28;20322;-43
2022/05/20 06:06:54;;;;;;;6.60;6.00;;;22.80;73.70;;;;;;5069673;28;21008;-43
2022/05/20 06:09:21;;;;;;;7.37;6.67;;;22.90;73.60;;;;;;5069806;28;20199;-47
2022/05/20 06:11:47;;;;;;;8.17;6.73;;;22.90;74.10;;;;;;5069613;28;20200;-45
2022/05/20 06:14:12;;;;;;;7.50;6.00;;;22.80;74.60;;;;;;5070196;28;20500;-43
2022/05/20 06:16:39;;;;;;;8.53;6.63;;;22.90;74.10;;;;;;5069430;28;20552;-44
2022/05/20 06:19:04;;;;;;;9.87;6.47;;;23.00;74.50;;;;;;5069982;28;20590;-43
2022/05/20 06:21:30;;;;;;;7.00;6.30;;;23.00;73.90;;;;;;5069358;28;20476;-44
2022/05/20 06:23:55;;;;;;;8.63;7.10;;;23.00;73.40;;;;;;5069827;28;20264;-43
2022/05/20 06:26:21;;;;;;;7.73;6.13;;;23.20;73.10;;;;;;5069215;28;20195;-44
2022/05/20 06:28:47;;;;;;;6.90;6.20;;;23.50;72.30;;;;;;5067577;28;20608;-43
2022/05/20 06:31:13;;;;;;;7.77;5.60;;;23.60;70.90;;;;;;5069204;28;20187;-44
2022/05/20 06:33:39;;;;;;;6.27;5.53;;;23.60;70.90;;;;;;5069884;28;20254;-42
2022/05/20 06:41:34;;;;;;;6.43;5.50;;;24.20;69.30;;;;;;5068995;28;20484;-43
2022/05/20 06:44:01;;;;;;;6.70;6.10;;;24.40;68.30;;;;;;5069893;28;21208;-43
2022/05/20 06:46:27;;;;;;;7.20;5.80;;;24.50;67.10;;;;;;5069291;28;20202;-44
2022/05/20 06:48:55;;;;;;;7.07;6.37;;;24.60;66.60;;;;;;5069323;28;20419;-43
2022/05/20 06:51:24;;;;;;;9.80;6.67;;;24.80;66.60;;;;;;5069227;28;20200;-43
2022/05/20 06:53:54;;;;;;;6.63;6.13;;;25.20;66.60;;;;;;5069792;28;20569;-43
2022/05/20 06:56:21;;;;;;;5.90;5.50;;;25.30;64.20;;;;;;5067640;28;20517;-43
2022/05/20 06:58:47;;;;;;;6.03;5.53;;;25.50;64.70;;;;;;5069087;28;20433;-43
2022/05/20 07:01:14;;;;;;;6.60;5.93;;;25.70;62.60;;;;;;5069269;28;20414;-43
2022/05/20 07:03:40;;;;;;;6.20;5.70;;;25.70;62.40;;;;;;5069064;28;20242;-44
2022/05/20 07:06:07;;;;;;;6.10;5.60;;;25.70;62.30;;;;;;5068800;28;20434;-45
2022/05/20 07:08:34;;;;;;;5.40;5.00;;;25.50;63.50;;;;;;5069018;28;20465;-44
2022/05/20 07:11:01;;;;;;;7.00;5.60;;;25.50;62.50;;;;;;5069185;28;20425;-45
2022/05/20 07:13:31;;;;;;;9.33;5.60;;;25.40;62.90;;;;;;5069514;28;20422;-43
2022/05/20 07:15:57;;;;;;;7.63;6.13;;;25.70;61.30;;;;;;5069011;28;20506;-43
2022/05/20 07:18:27;;;;;;;6.00;5.47;;;25.90;60.50;;;;;;5069314;28;20422;-43
2022/05/20 07:20:53;;;;;;;5.73;5.23;;;26.10;59.90;;;;;;5068941;28;20789;-44
2022/05/20 07:23:18;;;;;;;11.03;5.70;;;26.10;61.20;;;;;;5067948;28;20425;-45
2022/05/20 07:25:44;;;;;;;5.97;5.37;;;26.20;59.90;;;;;;5069405;28;20708;-43
2022/05/20 07:28:11;;;;;;;5.60;5.20;;;26.50;59.40;;;;;;5069003;28;20271;-43
2022/05/20 07:30:36;;;;;;;7.60;6.07;;;26.70;59.10;;;;;;5068453;28;20280;-42
2022/05/20 07:33:02;;;;;;;6.20;5.60;;;26.90;58.20;;;;;;5069360;28;20422;-43
2022/05/20 07:35:29;;;;;;;6.03;5.43;;;27.00;57.00;;;;;;5068577;28;20230;-45
2022/05/20 07:37:55;;;;;;;7.93;6.33;;;27.20;56.40;;;;;;5069458;28;20438;-44
2022/05/20 07:40:22;;;;;;;8.30;5.90;;;27.20;56.50;;;;;;5068552;28;20415;-43
2022/05/20 07:42:48;;;;;;;5.50;5.10;;;27.40;56.40;;;;;;5072015;28;20659;-45
2022/05/20 07:45:15;;;;;;;9.00;5.23;;;27.70;55.70;;;;;;5072129;28;20441;-43
2022/05/20 07:47:41;;;;;;;6.77;6.17;;;27.90;55.20;;;;;;5072645;28;20195;-45
2022/05/20 07:50:07;;;;;;;6.37;5.77;;;27.90;55.20;;;;;;5070274;28;20430;-43
2022/05/20 07:55:25;;;;;;;6.53;5.80;;;27.90;55.40;;;;;;5072076;28;20555;-47
2022/05/20 07:57:52;;;;;;;6.60;5.40;;;28.10;54.40;;;;;;5072484;28;20418;-43
2022/05/20 08:00:20;;;;;;;6.20;5.60;;;28.30;53.50;;;;;;5071306;28;20512;-43
2022/05/20 08:02:47;;;;;;;5.33;4.83;;;28.40;51.40;;;;;;5065193;28;20536;-44
2022/05/20 08:05:13;;;;;;;7.77;5.33;;;28.60;51.60;;;;;;5065401;28;20430;-46
2022/05/20 08:07:42;;;;;;;6.93;4.70;;;29.00;50.00;;;;;;5072548;28;20495;-43
2022/05/20 08:10:09;;;;;;;8.30;5.33;;;29.40;48.80;;;;;;5071229;28;20188;-44
2022/05/20 08:12:35;;;;;;;6.67;5.13;;;29.70;49.20;;;;;;5071959;28;20853;-44
2022/05/20 08:15:00;;;;;;;5.37;4.90;;;29.90;48.60;;;;;;5071620;28;20477;-46
2022/05/20 08:17:26;;;;;;;8.50;5.33;;;30.20;47.60;;;;;;5070652;28;20870;-46
2022/05/20 08:19:53;;;;;;;5.40;4.90;;;30.50;47.50;;;;;;5071746;28;20281;-44
2022/05/20 08:22:23;;;;;;;6.90;5.20;;;30.70;46.80;;;;;;5071881;28;20192;-45
2022/05/20 08:24:53;;;;;;;6.30;4.30;;;31.00;46.00;;;;;;5071995;28;20808;-45
2022/05/20 08:27:21;;;;;;;6.20;5.43;;;31.20;46.40;;;;;;5071725;28;20924;-44
2022/05/20 08:29:47;;;;;;;6.03;4.73;;;31.40;44.70;;;;;;5071579;28;20471;-45
2022/05/20 08:32:14;;;;;;;31.70;5.33;;;31.40;44.50;;;;;;5071263;28;20484;-45
2022/05/20 08:34:39;;;;;;;5.87;5.30;;;31.60;45.00;;;;;;5071808;28;20883;-45
2022/05/20 08:37:05;;;;;;;5.67;5.10;;;31.70;44.80;;;;;;5071230;28;20422;-44
2022/05/20 08:39:30;;;;;;;7.13;5.07;;;31.90;44.80;;;;;;5071407;28;20695;-43
2022/05/20 08:41:57;;;;;;;5.03;4.63;;;32.10;43.80;;;;;;5070960;28;20196;-47
2022/05/20 08:44:24;;;;;;;6.60;4.93;;;32.40;43.10;;;;;;5069830;28;20200;-45
2022/05/20 08:46:50;;;;;;;9.87;5.03;;;32.60;42.70;;;;;;5070965;28;20998;-44
2022/05/20 08:49:19;;;;;;;5.80;5.30;;;32.80;42.40;;;;;;5070898;28;20465;-45
2022/05/20 08:51:52;;;;;;;4.97;4.57;;;32.80;41.70;;;;;;5070656;28;20431;-44
2022/05/20 08:54:17;;;;;;;5.77;5.17;;;33.00;41.10;;;;;;5071479;28;20477;-47
2022/05/20 08:56:44;;;;;;;6.23;5.20;;;33.00;39.60;;;;;;5070951;28;20982;-44
2022/05/20 08:59:13;;;;;;;7.50;5.57;;;33.00;39.00;;;;;;5070585;28;20422;-45
2022/05/20 09:01:42;;;;;;;6.23;5.00;;;33.10;38.70;;;;;;5070784;28;20430;-45
2022/05/20 09:04:10;;;;;;;5.47;4.97;;;33.10;40.00;;;;;;5070502;28;20520;-46
2022/05/20 09:06:55;;;;;;;8.27;5.40;;;33.20;39.70;;;;;;5070700;28;20454;-47
2022/05/20 09:09:20;;;;;;;6.93;5.00;;;33.40;38.60;;;;;;5068652;28;21129;-45
2022/05/20 09:11:56;;;;;;;6.33;5.77;;;33.50;39.10;;;;;;5070700;28;20435;-45
2022/05/20 09:17:14;;;;;;;5.07;4.77;;;33.80;38.50;;;;;;5070532;28;20476;-45
2022/05/20 09:20:01;;;;;;;5.13;4.63;;;34.00;38.60;;;;;;5070381;28;20437;-49
2022/05/20 09:22:30;;;;;;;9.70;5.13;;;34.30;37.90;;;;;;5071084;28;20429;-44
2022/05/20 09:24:56;;;;;;;5.30;4.90;;;34.30;37.90;;;;;;5070724;28;20434;-47
2022/05/20 09:27:27;;;;;;;5.23;4.63;;;34.30;35.30;;;;;;5070291;28;20936;-44
2022/05/20 09:30:03;;;;;;;8.00;5.10;;;34.40;35.90;;;;;;5069841;28;20426;-44
2022/05/20 09:32:38;;;;;;;5.37;4.87;;;34.50;36.00;;;;;;5070546;28;20848;-45
2022/05/20 09:35:13;;;;;;;6.63;4.97;;;34.50;35.80;;;;;;5069931;28;20489;-48
2022/05/20 09:37:38;;;;;;;5.77;4.60;;;34.60;35.80;;;;;;5068922;28;20440;-45
2022/05/20 09:40:19;;;;;;;4.93;4.30;;;34.70;34.50;;;;;;5068179;28;20430;-46
2022/05/20 09:43:09;;;;;;;5.37;4.87;;;34.70;34.70;;;;;;5070566;28;20219;-48
2022/05/20 09:45:43;;;;;;;5.77;5.07;;;34.70;35.50;;;;;;5070023;28;20427;-46
2022/05/20 09:48:10;;;;;;;5.10;4.60;;;34.70;33.90;;;;;;5069720;28;20516;-44
2022/05/20 09:50:38;;;;;;;10.50;4.77;;;34.50;32.80;;;;;;5069777;28;20441;-44
2022/05/20 09:53:33;;;;;;;6.13;4.80;;;34.50;33.90;;;;;;5070172;28;20434;-46
2022/05/20 09:56:30;;;;;;;5.07;4.60;;;34.50;32.20;;;;;;5069563;28;20887;-44
2022/05/20 09:59:21;;;;;;;5.40;4.47;;;34.50;33.10;;;;;;5069702;28;20440;-44
2022/05/20 10:02:22;;;;;;;5.07;4.40;;;34.70;33.30;;;;;;5069736;28;20430;-45
2022/05/20 10:04:51;;;;;;;9.20;4.80;;;34.80;32.80;;;;;;5047537;28;20453;-46
2022/05/20 10:07:27;;;;;;;7.40;5.17;;;35.10;33.20;;;;;;5069558;28;20438;-48
2022/05/20 10:10:00;;;;;;;4.37;4.00;;;35.30;32.60;;;;;;5069526;28;20912;-46
2022/05/20 10:12:29;;;;;;;7.77;5.13;;;35.20;32.30;;;;;;5070057;28;20430;-49
2022/05/20 10:15:24;;;;;;;5.70;4.77;;;35.10;32.90;;;;;;5069981;28;20501;-45
2022/05/20 10:18:09;;;;;;;4.80;4.30;;;35.10;32.20;;;;;;5069896;28;20930;-47
2022/05/20 10:20:46;;;;;;;4.47;4.07;;;35.30;32.40;;;;;;5069364;28;20480;-44
2022/05/20 10:23:34;;;;;;;5.50;5.00;;;35.40;32.00;;;;;;5069929;28;21060;-50
2022/05/20 10:26:33;;;;;;;8.07;5.20;;;35.50;31.00;;;;;;5069510;28;20427;-45
2022/05/20 10:32:34;;;;;;;7.17;4.33;;;35.90;31.40;;;;;;5068682;28;20793;-46
2022/05/20 10:35:02;;;;;;;5.47;4.97;;;36.10;31.30;;;;;;5069268;28;20482;-45
2022/05/20 10:37:56;;;;;;;5.30;4.80;;;36.20;30.00;;;;;;5069985;28;20423;-49
2022/05/20 10:40:24;;;;;;;6.60;4.60;;;35.90;30.20;;;;;;5068796;28;20442;-46
2022/05/20 10:43:09;;;;;;;4.80;4.27;;;35.40;30.30;;;;;;5069715;28;20473;-44
2022/05/20 10:48:39;;;;;;;5.30;4.90;;;35.50;30.50;;;;;;5069434;28;20503;-47
2022/05/20 10:51:23;;;;;;;4.63;4.23;;;35.90;31.30;;;;;;5068813;28;20520;-46
2022/05/20 10:53:54;;;;;;;5.83;4.57;;;36.30;30.30;;;;;;5069557;28;20517;-46
2022/05/20 10:56:41;;;;;;;4.87;4.10;;;36.50;30.30;;;;;;5069101;28;20815;-46
2022/05/20 10:59:16;;;;;;;5.30;3.87;;;36.80;29.80;;;;;;5067650;28;20525;-47
2022/05/20 11:02:12;;;;;;;4.97;3.97;;;36.70;28.90;;;;;;5069299;28;20513;-48
2022/05/20 11:04:38;;;;;;;4.97;4.43;;;36.50;28.40;;;;;;5058360;28;20477;-46
2022/05/20 11:07:22;;;;;;;9.60;4.63;;;36.40;28.30;;;;;;5068777;28;20932;-46
2022/05/20 11:10:07;;;;;;;5.30;4.13;;;36.60;28.30;;;;;;5069264;28;20543;-45
2022/05/20 11:12:39;;;;;;;5.10;4.50;;;36.80;28.00;;;;;;5069447;28;20430;-45
2022/05/20 11:15:23;;;;;;;8.83;5.23;;;36.40;27.70;;;;;;5069035;28;20481;-46
2022/05/20 11:18:01;;;;;;;6.17;4.50;;;36.40;27.90;;;;;;5073369;28;20481;-45
2022/05/20 11:20:30;;;;;;;5.80;4.20;;;36.10;27.80;;;;;;5071578;28;20441;-48
2022/05/20 11:23:13;;;;;;;7.30;3.90;;;36.10;28.80;;;;;;5073101;28;20986;-45
2022/05/20 11:25:52;;;;;;;5.40;3.83;;;36.10;27.60;;;;;;5071052;28;20433;-49
2022/05/20 11:28:35;;;;;;;4.80;4.27;;;36.20;27.90;;;;;;5072761;28;20490;-48
2022/05/20 11:31:10;;;;;;;6.67;4.50;;;35.90;27.60;;;;;;5072373;28;20464;-47
2022/05/20 11:34:19;;;;;;;5.27;4.30;;;35.70;27.70;;;;;;5072984;28;20516;-48
2022/05/20 11:37:07;;;;;;;5.00;4.10;;;36.10;28.40;;;;;;5072368;28;20517;-45
2022/05/20 11:39:57;;;;;;;5.30;4.07;;;36.60;27.60;;;;;;5072428;28;20426;-46
2022/05/20 11:42:31;;;;;;;6.50;4.23;;;36.80;27.50;;;;;;5072765;28;20800;-49
2022/05/20 11:45:14;;;;;;;5.13;4.37;;;36.90;27.80;;;;;;5072269;28;20924;-46
2022/05/20 11:48:00;;;;;;;6.07;4.10;;;37.10;27.90;;;;;;5072646;28;20453;-46
2022/05/20 11:51:02;;;;;;;4.70;3.73;;;36.70;27.00;;;;;;5072107;28;20418;-49
2022/05/20 11:53:38;;;;;;;5.00;4.23;;;36.90;27.20;;;;;;5072442;28;20425;-48
2022/05/20 11:56:14;;;;;;;6.00;4.40;;;36.90;27.00;;;;;;5071706;28;20821;-47
2022/05/20 11:58:43;;;;;;;5.37;4.23;;;37.30;26.80;;;;;;5072163;28;20463;-48
2022/05/20 12:01:09;;;;;;;5.17;4.33;;;37.50;26.00;;;;;;5071773;28;20494;-48
2022/05/20 12:06:24;;;;;;;8.33;4.57;;;37.70;25.80;;;;;;5071744;28;20576;-45
2022/05/20 12:08:55;;;;;;;4.03;3.63;;;37.80;26.70;;;;;;5071930;28;20425;-46
2022/05/20 12:11:37;;;;;;;4.90;4.43;;;38.00;26.30;;;;;;5071674;28;20453;-49
2022/05/20 12:14:16;;;;;;;5.63;4.23;;;38.10;26.20;;;;;;5071941;28;20492;-46
2022/05/20 12:17:03;;;;;;;6.93;4.47;;;38.00;25.60;;;;;;5071682;28;20425;-48
2022/05/20 12:25:37;;;;;;;5.80;4.33;;;37.50;25.80;;;;;;5071532;28;20433;-48
2022/05/20 12:28:07;;;;;;;4.73;4.13;;;37.60;25.70;;;;;;5070615;28;20838;-47
2022/05/20 12:30:43;;;;;;;6.97;3.70;;;37.70;25.60;;;;;;5071422;28;20457;-48
2022/05/20 12:33:27;;;;;;;7.20;4.30;;;37.80;25.90;;;;;;5071614;28;20438;-45
2022/05/20 12:36:14;;;;;;;6.17;4.00;;;37.60;26.30;;;;;;5071203;28;20503;-44
2022/05/20 12:38:40;;;;;;;9.10;4.57;;;37.60;26.40;;;;;;5071539;28;20513;-49
2022/05/20 12:41:20;;;;;;;5.40;4.10;;;37.60;25.70;;;;;;5071215;28;20714;-46
2022/05/20 12:43:53;;;;;;;4.17;3.70;;;37.50;25.40;;;;;;5071714;28;20192;-48
2022/05/20 12:46:31;;;;;;;5.80;4.00;;;37.60;25.80;;;;;;5069572;28;20418;-44
2022/05/20 12:48:56;;;;;;;9.33;3.77;;;37.50;25.60;;;;;;5071461;28;20426;-46
2022/05/20 12:51:22;;;;;;;6.20;4.30;;;37.60;26.20;;;;;;5070982;28;20425;-45
2022/05/20 12:53:47;;;;;;;10.10;4.40;;;37.70;25.60;;;;;;5071339;28;20215;-44
2022/05/20 12:56:28;;;;;;;6.87;4.40;;;37.70;25.30;;;;;;5071046;28;20199;-46
2022/05/20 12:59:15;;;;;;;9.00;4.70;;;37.90;25.60;;;;;;5071198;28;20203;-44
2022/05/20 13:02:00;;;;;;;5.80;3.87;;;38.00;25.20;;;;;;5071072;28;20438;-45
2022/05/20 13:04:29;;;;;;;7.83;4.33;;;37.80;24.90;;;;;;5057995;28;20500;-45
2022/05/20 13:06:57;;;;;;;8.90;3.83;;;37.90;24.90;;;;;;5070351;28;21089;-45
2022/05/20 13:09:34;;;;;;;10.70;4.20;;;38.00;24.70;;;;;;5070573;28;20432;-46
2022/05/20 13:12:07;;;;;;;4.77;4.27;;;37.70;24.70;;;;;;5068800;28;20500;-45
2022/05/20 13:14:35;;;;;;;6.50;4.03;;;37.80;24.70;;;;;;5071156;28;20489;-44
2022/05/20 13:17:03;;;;;;;7.07;4.13;;;37.60;24.80;;;;;;5070032;28;20921;-47
2022/05/20 13:19:37;;;;;;;9.00;4.00;;;37.30;24.90;;;;;;5070646;28;20432;-45
2022/05/20 13:22:05;;;;;;;5.60;3.53;;;37.60;25.30;;;;;;5070354;28;20425;-45
2022/05/20 13:24:35;;;;;;;5.97;3.40;;;37.90;24.80;;;;;;5070710;28;20425;-45
2022/05/20 13:27:11;;;;;;;6.60;3.77;;;38.20;24.50;;;;;;5070296;28;20907;-45
2022/05/20 13:29:39;;;;;;;4.53;3.80;;;38.20;24.80;;;;;;5070264;28;20437;-44
2022/05/20 13:32:10;;;;;;;6.60;4.23;;;38.20;24.30;;;;;;5070098;28;21062;-46
2022/05/20 13:34:38;;;;;;;4.13;3.63;;;38.20;24.40;;;;;;5070419;28;20485;-45
2022/05/20 13:37:06;;;;;;;5.50;3.83;;;38.40;24.40;;;;;;5069953;28;20422;-46
2022/05/20 13:39:32;;;;;;;5.23;3.80;;;38.60;24.90;;;;;;5068760;28;20467;-44
2022/05/20 13:41:58;;;;;;;4.53;3.33;;;38.60;24.40;;;;;;5070093;28;20432;-44
2022/05/20 13:44:25;;;;;;;8.10;4.40;;;38.70;24.10;;;;;;5070159;28;20434;-50
2022/05/20 13:49:38;;;;;;;9.70;4.30;;;38.50;24.00;;;;;;5069999;28;20425;-45
2022/05/20 13:52:10;;;;;;;9.27;4.40;;;38.50;24.40;;;;;;5069633;28;20433;-45